createdAt,value
2022-11-06T00:00:17.806Z,4.93
2022-11-06T00:02:49.613Z,4.30
2022-11-06T00:05:40.118Z,4.07
2022-11-06T00:08:12.193Z,4.57
2022-11-06T00:10:44.289Z,4.13
2022-11-06T00:13:16.025Z,4.37
2022-11-06T00:15:47.756Z,4.20
2022-11-06T00:18:19.727Z,4.83
2022-11-06T00:20:51.430Z,5.23
2022-11-06T00:23:24.017Z,4.97
2022-11-06T00:25:56.656Z,4.97
2022-11-06T00:28:28.505Z,5.17
2022-11-06T00:31:08.677Z,4.50
2022-11-06T00:33:40.999Z,4.23
2022-11-06T00:36:20.160Z,4.70
2022-11-06T00:38:54.062Z,4.33
2022-11-06T00:41:26.605Z,4.90
2022-11-06T00:44:00.289Z,4.47
2022-11-06T00:46:32.239Z,4.73
2022-11-06T00:49:04.111Z,4.73
2022-11-06T00:51:39.413Z,4.90
2022-11-06T00:54:12.476Z,4.50
2022-11-06T00:56:44.185Z,4.33
2022-11-06T00:59:16.087Z,5.13
2022-11-06T01:01:47.928Z,4.20
2022-11-06T01:04:22.392Z,4.87
2022-11-06T01:06:56.829Z,4.73
2022-11-06T01:09:28.955Z,5.17
2022-11-06T01:12:16.138Z,5.00
2022-11-06T01:14:47.915Z,4.67
2022-11-06T01:17:19.634Z,5.10
2022-11-06T01:19:51.384Z,4.33
2022-11-06T01:22:23.092Z,4.30
2022-11-06T01:24:54.896Z,5.40
2022-11-06T01:27:27.537Z,5.63
2022-11-06T01:29:59.761Z,4.90
2022-11-06T01:32:31.505Z,5.63
2022-11-06T01:35:03.290Z,5.93
2022-11-06T01:37:35.120Z,5.70
2022-11-06T01:40:07.132Z,6.60
2022-11-06T01:42:38.878Z,7.13
2022-11-06T01:45:26.265Z,7.83
2022-11-06T01:47:58.092Z,6.60
2022-11-06T01:50:29.933Z,7.63
2022-11-06T01:53:02.626Z,6.60
2022-11-06T01:55:42.115Z,6.03
2022-11-06T01:58:17.658Z,6.87
2022-11-06T02:00:50.678Z,6.20
2022-11-06T02:03:22.598Z,7.10
2022-11-06T02:05:54.864Z,7.27
2022-11-06T02:08:26.806Z,7.83
2022-11-06T02:10:58.652Z,7.27
2022-11-06T02:13:57.958Z,7.17
2022-11-06T02:17:06.859Z,6.33
2022-11-06T02:20:03.192Z,7.77
2022-11-06T02:22:58.972Z,7.63
2022-11-06T02:25:48.704Z,8.07
2022-11-06T02:28:30.938Z,8.53
2022-11-06T02:31:10.170Z,9.87
2022-11-06T02:33:50.382Z,8.20
2022-11-06T02:36:30.909Z,8.17
2022-11-06T02:39:07.720Z,8.33
2022-11-06T02:41:44.073Z,6.60
2022-11-06T02:44:20.537Z,6.83
2022-11-06T02:47:02.867Z,7.20
2022-11-06T02:49:42.309Z,6.70
2022-11-06T02:52:23.172Z,6.33
2022-11-06T02:55:49.610Z,6.40
2022-11-06T02:58:30.882Z,7.43
2022-11-06T03:01:26.109Z,6.13
2022-11-06T03:04:04.079Z,6.10
2022-11-06T03:06:40.143Z,6.07
2022-11-06T03:09:29.290Z,6.17
2022-11-06T03:12:25.787Z,6.00
2022-11-06T03:15:06.471Z,5.83
2022-11-06T03:17:41.221Z,5.27
2022-11-06T03:20:36.390Z,6.60
2022-11-06T03:23:27.040Z,5.13
2022-11-06T03:26:04.348Z,4.67
2022-11-06T03:28:50.297Z,5.87
2022-11-06T03:31:37.726Z,5.93
2022-11-06T03:34:15.489Z,6.43
2022-11-06T03:36:54.496Z,4.73
2022-11-06T03:39:32.157Z,4.73
2022-11-06T03:42:08.128Z,5.97
2022-11-06T03:44:45.937Z,5.80
2022-11-06T03:47:17.608Z,5.37
2022-11-06T03:49:59.393Z,6.13
2022-11-06T03:52:35.862Z,5.23
2022-11-06T03:55:18.276Z,6.37
2022-11-06T03:57:56.936Z,5.43
2022-11-06T04:00:29.625Z,5.13
2022-11-06T04:03:07.473Z,5.43
2022-11-06T04:05:44.460Z,5.93
2022-11-06T04:08:39.113Z,5.70
2022-11-06T04:11:34.219Z,5.47
2022-11-06T04:14:07.597Z,4.63
2022-11-06T04:16:43.677Z,5.03
2022-11-06T04:19:18.562Z,5.03
2022-11-06T04:22:32.166Z,4.47
2022-11-06T04:25:37.693Z,5.13
2022-11-06T04:28:41.810Z,4.73
2022-11-06T04:31:42.176Z,4.37
2022-11-06T04:34:25.536Z,4.83
2022-11-06T04:37:06.288Z,5.03
2022-11-06T04:39:49.285Z,4.80
2022-11-06T04:42:27.133Z,4.57
2022-11-06T04:45:06.395Z,5.60
2022-11-06T04:47:39.321Z,4.63
2022-11-06T04:50:13.446Z,4.63
2022-11-06T04:52:46.175Z,5.33
2022-11-06T04:55:18.086Z,4.90
2022-11-06T04:57:49.898Z,5.37
2022-11-06T05:00:21.738Z,5.20
2022-11-06T05:02:53.466Z,5.10
2022-11-06T05:05:27.214Z,4.83
2022-11-06T05:07:58.902Z,5.10
2022-11-06T05:10:30.632Z,5.17
2022-11-06T05:13:02.350Z,5.47
2022-11-06T05:15:34.097Z,5.40
2022-11-06T05:18:06.485Z,6.07
2022-11-06T05:20:38.305Z,5.77
2022-11-06T05:23:10.015Z,5.80
2022-11-06T05:25:42.957Z,5.90
2022-11-06T05:28:14.918Z,4.97
2022-11-06T05:30:46.763Z,5.33
2022-11-06T05:33:18.498Z,5.53
2022-11-06T05:35:50.889Z,5.97
2022-11-06T05:38:22.645Z,5.97
2022-11-06T05:40:54.343Z,5.90
2022-11-06T05:43:26.330Z,5.70
2022-11-06T05:45:58.666Z,6.40
2022-11-06T05:48:30.354Z,7.17
2022-11-06T05:51:04.705Z,6.20
2022-11-06T05:53:36.886Z,5.97
2022-11-06T05:56:08.622Z,6.03
2022-11-06T05:58:40.362Z,6.80
2022-11-06T06:01:12.909Z,7.40
2022-11-06T06:03:44.641Z,8.70
2022-11-06T06:06:16.709Z,8.97
2022-11-06T06:08:48.385Z,8.37
2022-11-06T06:11:20.159Z,8.37
2022-11-06T06:13:51.889Z,9.10
2022-11-06T06:16:23.703Z,8.40
2022-11-06T06:18:55.410Z,8.73
2022-11-06T06:21:27.175Z,7.93
2022-11-06T06:23:58.926Z,8.07
2022-11-06T06:26:31.050Z,7.43
2022-11-06T06:29:03.185Z,8.50
2022-11-06T06:31:34.989Z,8.10
2022-11-06T06:34:06.702Z,8.50
2022-11-06T06:36:38.450Z,7.63
2022-11-06T06:39:10.432Z,8.30
2022-11-06T06:41:42.137Z,8.30
2022-11-06T06:44:14.041Z,7.83
2022-11-06T06:46:45.733Z,9.77
2022-11-06T06:49:17.448Z,8.17
2022-11-06T06:51:50.076Z,7.97
2022-11-06T06:54:21.830Z,8.70
2022-11-06T06:56:53.532Z,9.97
2022-11-06T06:59:25.351Z,8.70
2022-11-06T07:01:57.953Z,7.47
2022-11-06T07:04:29.778Z,7.40
2022-11-06T07:07:01.489Z,7.73
2022-11-06T07:09:33.307Z,7.73
2022-11-06T07:12:05.276Z,7.50
2022-11-06T07:14:36.957Z,8.37
2022-11-06T07:17:08.652Z,8.73
2022-11-06T07:19:40.349Z,8.30
2022-11-06T07:22:12.066Z,9.20
2022-11-06T07:24:43.786Z,9.17
2022-11-06T07:27:15.506Z,10.20
2022-11-06T07:29:47.197Z,11.00
2022-11-06T07:32:18.956Z,10.60
2022-11-06T07:34:50.646Z,9.70
2022-11-06T07:37:22.404Z,10.80
2022-11-06T07:39:54.142Z,9.23
2022-11-06T07:42:25.845Z,9.63
2022-11-06T07:45:06.166Z,9.17
2022-11-06T07:47:37.886Z,8.67
2022-11-06T07:50:09.620Z,9.27
2022-11-06T07:52:41.369Z,9.30
2022-11-06T07:55:13.065Z,8.70
2022-11-06T07:57:44.778Z,9.67
2022-11-06T08:00:16.739Z,10.20
2022-11-06T08:02:52.873Z,10.83
2022-11-06T08:05:24.598Z,10.17
2022-11-06T08:07:57.201Z,11.23
2022-11-06T08:10:28.896Z,10.83
2022-11-06T08:13:00.953Z,10.30
2022-11-06T08:15:33.164Z,9.77
2022-11-06T08:18:06.164Z,9.80
2022-11-06T08:20:39.303Z,10.53
2022-11-06T08:23:12.938Z,10.27
2022-11-06T08:25:44.638Z,10.07
2022-11-06T08:28:16.529Z,11.50
2022-11-06T08:30:48.426Z,10.60
2022-11-06T08:33:21.575Z,10.40
2022-11-06T08:35:53.530Z,11.27
2022-11-06T08:38:25.226Z,11.83
2022-11-06T08:40:57.249Z,11.60
2022-11-06T08:43:28.960Z,10.97
2022-11-06T08:46:01.532Z,10.40
2022-11-06T08:48:33.840Z,10.87
2022-11-06T08:51:06.145Z,11.83
2022-11-06T08:53:37.891Z,10.20
2022-11-06T08:56:09.690Z,11.40
2022-11-06T08:58:41.431Z,10.63
2022-11-06T09:01:13.434Z,11.40
2022-11-06T09:03:45.180Z,11.03
2022-11-06T09:06:16.928Z,10.73
2022-11-06T09:08:48.750Z,12.13
2022-11-06T09:11:20.457Z,11.30
2022-11-06T09:13:52.335Z,11.57
2022-11-06T09:16:26.184Z,11.97
2022-11-06T09:18:59.427Z,11.30
2022-11-06T09:21:31.176Z,11.53
2022-11-06T09:24:02.965Z,11.00
2022-11-06T09:26:35.165Z,11.30
2022-11-06T09:29:06.868Z,12.13
2022-11-06T09:31:38.616Z,11.47
2022-11-06T09:34:10.323Z,11.33
2022-11-06T09:36:42.108Z,11.60
2022-11-06T09:39:13.849Z,11.47
2022-11-06T09:41:45.506Z,11.67
2022-11-06T09:44:58.306Z,11.70
2022-11-06T09:47:34.367Z,11.97
2022-11-06T09:50:11.656Z,12.37
2022-11-06T09:52:50.101Z,12.00
2022-11-06T09:55:38.515Z,11.10
2022-11-06T09:58:15.819Z,11.30
2022-11-06T10:00:51.474Z,11.33
2022-11-06T10:03:45.318Z,11.90
2022-11-06T10:06:20.115Z,10.53
2022-11-06T10:08:54.998Z,11.37
2022-11-06T10:11:50.063Z,10.13
2022-11-06T10:14:36.032Z,10.60
2022-11-06T10:17:37.359Z,11.67
2022-11-06T10:20:25.453Z,10.43
2022-11-06T10:23:13.254Z,10.37
2022-11-06T10:25:56.801Z,9.60
2022-11-06T10:28:49.840Z,8.67
2022-11-06T10:31:37.227Z,8.57
2022-11-06T10:34:31.435Z,9.23
2022-11-06T10:37:18.274Z,9.00
2022-11-06T10:39:50.401Z,8.47
2022-11-06T10:42:36.725Z,9.60
2022-11-06T10:45:14.687Z,8.77
2022-11-06T10:47:56.151Z,9.87
2022-11-06T10:50:38.258Z,8.90
2022-11-06T10:53:28.957Z,9.50
2022-11-06T10:56:23.227Z,9.17
2022-11-06T10:58:55.215Z,10.20
2022-11-06T11:01:27.230Z,10.07
2022-11-06T11:03:59.048Z,10.13
2022-11-06T11:06:31.288Z,10.90
2022-11-06T11:09:22.960Z,9.57
2022-11-06T11:11:54.759Z,8.43
2022-11-06T11:14:31.494Z,9.53
2022-11-06T11:17:08.101Z,9.00
2022-11-06T11:19:41.925Z,8.87
2022-11-06T11:22:16.581Z,9.23
2022-11-06T11:25:06.406Z,9.53
2022-11-06T11:27:44.206Z,9.50
2022-11-06T11:30:26.328Z,10.37
2022-11-06T11:32:58.604Z,9.07
2022-11-06T11:35:31.486Z,9.17
2022-11-06T11:38:22.689Z,9.40
2022-11-06T11:41:09.147Z,8.93
2022-11-06T11:43:42.003Z,9.07
2022-11-06T11:46:20.793Z,7.30
2022-11-06T11:48:55.663Z,7.87
2022-11-06T11:51:43.554Z,8.33
2022-11-06T11:54:23.334Z,8.23
2022-11-06T11:57:05.105Z,7.67
2022-11-06T11:59:51.784Z,7.63
2022-11-06T12:02:28.273Z,7.37
2022-11-06T12:05:10.887Z,8.27
2022-11-06T12:07:48.633Z,7.67
2022-11-06T12:10:36.986Z,7.20
2022-11-06T12:13:18.892Z,7.47
2022-11-06T12:15:56.669Z,7.50
2022-11-06T12:18:42.332Z,7.07
2022-11-06T12:21:38.006Z,6.67
2022-11-06T12:24:16.658Z,7.10
2022-11-06T12:27:02.384Z,6.93
2022-11-06T12:30:09.919Z,7.20
2022-11-06T12:33:03.580Z,6.87
2022-11-06T12:35:43.701Z,6.87
2022-11-06T12:38:31.588Z,6.23
2022-11-06T12:41:25.274Z,7.10
2022-11-06T12:43:57.338Z,7.27
2022-11-06T12:46:47.436Z,7.70
2022-11-06T12:49:42.094Z,6.40
2022-11-06T12:52:40.684Z,6.73
2022-11-06T12:55:29.621Z,5.93
2022-11-06T12:58:22.122Z,6.47
2022-11-06T13:01:04.715Z,6.10
2022-11-06T13:04:09.690Z,6.33
2022-11-06T13:07:00.348Z,6.03
2022-11-06T13:10:13.152Z,6.17
2022-11-06T13:12:57.482Z,6.13
2022-11-06T13:15:43.421Z,6.27
2022-11-06T13:18:27.910Z,5.50
2022-11-06T13:21:10.128Z,5.03
2022-11-06T13:23:49.634Z,5.90
2022-11-06T13:26:49.937Z,5.37
2022-11-06T13:29:22.512Z,5.20
2022-11-06T13:32:01.440Z,4.90
2022-11-06T13:34:37.943Z,5.23
2022-11-06T13:37:36.344Z,4.97
2022-11-06T13:40:26.650Z,5.13
2022-11-06T13:43:17.586Z,5.10
2022-11-06T13:46:09.632Z,4.90
2022-11-06T13:48:50.564Z,4.90
2022-11-06T13:51:40.263Z,5.87
2022-11-06T13:54:24.155Z,5.20
2022-11-06T13:57:14.818Z,5.33
2022-11-06T14:00:12.727Z,5.07
2022-11-06T14:03:24.753Z,5.20
2022-11-06T14:06:20.345Z,5.17
2022-11-06T14:08:56.360Z,5.27
2022-11-06T14:11:37.735Z,5.33
2022-11-06T14:14:23.359Z,4.90
2022-11-06T14:17:22.085Z,5.30
2022-11-06T14:20:01.190Z,5.23
2022-11-06T14:22:36.276Z,4.50
2022-11-06T14:25:29.604Z,4.83
2022-11-06T14:28:04.627Z,4.73
2022-11-06T14:31:10.525Z,6.10
2022-11-06T14:33:41.922Z,5.10
2022-11-06T14:36:28.189Z,4.63
2022-11-06T14:39:01.368Z,5.47
2022-11-06T14:41:36.133Z,5.33
2022-11-06T14:44:20.978Z,5.37
2022-11-06T14:47:05.158Z,5.87
2022-11-06T14:49:42.131Z,5.50
2022-11-06T14:52:15.940Z,6.23
2022-11-06T14:55:05.675Z,5.13
2022-11-06T14:57:48.464Z,5.50
2022-11-06T15:00:35.207Z,5.87
2022-11-06T15:03:25.112Z,5.00
2022-11-06T15:06:19.979Z,5.33
2022-11-06T15:08:54.173Z,5.47
2022-11-06T15:11:34.960Z,5.90
2022-11-06T15:14:09.232Z,5.47
2022-11-06T15:17:02.378Z,6.40
2022-11-06T15:19:47.987Z,5.73
2022-11-06T15:22:37.030Z,6.00
2022-11-06T15:25:21.240Z,7.00
2022-11-06T15:28:04.210Z,5.87
2022-11-06T15:30:46.005Z,5.87
2022-11-06T15:33:32.305Z,5.70
2022-11-06T15:36:12.582Z,4.87
2022-11-06T15:38:44.803Z,6.37
2022-11-06T15:41:22.816Z,6.20
2022-11-06T15:43:55.774Z,5.40
2022-11-06T15:46:29.344Z,6.97
2022-11-06T15:49:18.816Z,6.47
2022-11-06T15:52:02.037Z,7.77
2022-11-06T15:54:43.880Z,7.70
2022-11-06T15:57:24.021Z,7.27
2022-11-06T16:00:09.344Z,6.57
2022-11-06T16:02:59.062Z,6.53
2022-11-06T16:05:34.251Z,6.20
2022-11-06T16:08:06.991Z,7.60
2022-11-06T16:10:39.085Z,8.17
2022-11-06T16:13:16.395Z,7.53
2022-11-06T16:15:57.199Z,7.43
2022-11-06T16:18:44.058Z,7.33
2022-11-06T16:21:18.980Z,6.97
2022-11-06T16:23:57.315Z,9.17
2022-11-06T16:26:32.073Z,9.27
2022-11-06T16:29:11.338Z,8.63
2022-11-06T16:31:44.089Z,12.77
2022-11-06T16:34:35.306Z,12.10
2022-11-06T16:37:29.904Z,11.53
2022-11-06T16:40:01.822Z,10.37
2022-11-06T16:42:36.001Z,9.07
2022-11-06T16:45:21.987Z,7.93
2022-11-06T16:48:08.821Z,9.07
2022-11-06T16:50:54.749Z,9.97
2022-11-06T16:53:29.496Z,8.67
2022-11-06T16:56:04.733Z,8.77
2022-11-06T16:58:50.496Z,8.67
2022-11-06T17:01:22.680Z,8.87
2022-11-06T17:03:59.234Z,8.10
2022-11-06T17:06:33.229Z,9.37
2022-11-06T17:09:31.287Z,9.00
2022-11-06T17:12:04.050Z,10.00
2022-11-06T17:14:35.789Z,9.00
2022-11-06T17:17:23.001Z,9.50
2022-11-06T17:19:54.696Z,10.57
2022-11-06T17:22:26.400Z,12.87
2022-11-06T17:24:58.126Z,10.53
2022-11-06T17:27:29.829Z,11.80
2022-11-06T17:30:01.786Z,14.30
2022-11-06T17:32:33.495Z,13.83
2022-11-06T17:35:05.655Z,12.30
2022-11-06T17:37:38.000Z,11.60
2022-11-06T17:40:10.504Z,10.03
2022-11-06T17:42:42.240Z,10.83
2022-11-06T17:45:14.029Z,10.60
2022-11-06T17:47:45.722Z,10.57
2022-11-06T17:50:17.689Z,12.97
2022-11-06T17:52:49.412Z,13.73
2022-11-06T17:55:21.119Z,11.87
2022-11-06T17:57:52.818Z,12.33
2022-11-06T18:00:24.596Z,12.27
2022-11-06T18:03:01.649Z,10.97
2022-11-06T18:05:35.931Z,11.97
2022-11-06T18:08:12.171Z,12.13
2022-11-06T18:10:44.270Z,12.90
2022-11-06T18:13:16.020Z,13.00
2022-11-06T18:15:47.715Z,13.83
2022-11-06T18:18:20.196Z,13.20
2022-11-06T18:20:51.998Z,14.07
2022-11-06T18:23:23.736Z,12.77
2022-11-06T18:25:57.034Z,13.73
2022-11-06T18:28:28.742Z,12.50
2022-11-06T18:31:00.622Z,13.47
2022-11-06T18:33:32.642Z,12.80
2022-11-06T18:36:07.343Z,12.47
2022-11-06T18:38:39.735Z,11.03
2022-11-06T18:41:16.949Z,11.43
2022-11-06T18:43:48.910Z,11.33
2022-11-06T18:46:20.957Z,12.93
2022-11-06T18:48:53.678Z,12.70
2022-11-06T18:51:35.987Z,13.03
2022-11-06T18:54:10.818Z,9.37
2022-11-06T18:56:42.652Z,10.50
2022-11-06T18:59:16.756Z,10.93
2022-11-06T19:01:48.577Z,13.43
2022-11-06T19:04:21.779Z,11.53
2022-11-06T19:06:54.179Z,12.53
2022-11-06T19:09:26.276Z,12.43
2022-11-06T19:11:58.086Z,12.17
2022-11-06T19:14:29.838Z,13.03
2022-11-06T19:17:01.533Z,11.50
2022-11-06T19:19:33.260Z,12.00
2022-11-06T19:22:05.122Z,11.47
2022-11-06T19:24:37.110Z,11.30
2022-11-06T19:27:08.909Z,12.77
2022-11-06T19:29:40.615Z,12.47
2022-11-06T19:32:12.375Z,12.63
2022-11-06T19:34:44.198Z,12.10
2022-11-06T19:37:15.936Z,12.23
2022-11-06T19:39:47.619Z,13.40
2022-11-06T19:42:19.340Z,13.43
2022-11-06T19:44:51.814Z,13.87
2022-11-06T19:47:23.671Z,13.73
2022-11-06T19:49:55.406Z,12.63
2022-11-06T19:52:41.101Z,13.77
2022-11-06T19:55:27.102Z,13.23
2022-11-06T19:57:59.514Z,13.10
2022-11-06T20:00:31.277Z,13.23
2022-11-06T20:03:03.070Z,12.90
2022-11-06T20:05:35.091Z,12.13
2022-11-06T20:08:07.735Z,13.27
2022-11-06T20:10:41.458Z,13.43
2022-11-06T20:13:13.403Z,12.53
2022-11-06T20:15:45.411Z,13.17
2022-11-06T20:18:17.150Z,12.63
2022-11-06T20:20:51.090Z,13.50
2022-11-06T20:23:22.860Z,10.03
2022-11-06T20:25:54.755Z,10.63
2022-11-06T20:28:26.849Z,10.60
2022-11-06T20:30:58.630Z,9.43
2022-11-06T20:33:30.366Z,9.77
2022-11-06T20:36:14.373Z,9.93
2022-11-06T20:38:46.702Z,10.40
2022-11-06T20:41:18.521Z,10.07
2022-11-06T20:43:51.743Z,9.47
2022-11-06T20:46:24.454Z,9.93
2022-11-06T20:48:57.786Z,9.60
2022-11-06T20:51:31.819Z,8.87
2022-11-06T20:54:03.894Z,9.43
2022-11-06T20:56:35.650Z,8.70
2022-11-06T20:59:07.444Z,9.30
2022-11-06T21:01:39.480Z,8.80
2022-11-06T21:04:12.102Z,9.47
2022-11-06T21:06:43.870Z,9.13
2022-11-06T21:09:16.658Z,8.57
2022-11-06T21:11:48.450Z,7.83
2022-11-06T21:14:20.251Z,8.67
2022-11-06T21:16:53.147Z,8.90
2022-11-06T21:19:25.016Z,8.20
2022-11-06T21:21:58.062Z,9.47
2022-11-06T21:24:29.782Z,8.77
2022-11-06T21:27:01.487Z,8.83
2022-11-06T21:29:33.273Z,8.13
2022-11-06T21:32:05.287Z,8.57
2022-11-06T21:34:37.023Z,8.23
2022-11-06T21:37:08.878Z,8.40
2022-11-06T21:39:40.648Z,8.93
2022-11-06T21:42:12.559Z,8.70
2022-11-06T21:44:44.439Z,8.37
2022-11-06T21:47:16.185Z,8.37
2022-11-06T21:49:53.849Z,8.37
2022-11-06T21:52:44.257Z,8.83
2022-11-06T21:55:35.992Z,8.40
2022-11-06T21:58:07.696Z,8.13
2022-11-06T22:00:39.708Z,9.23
2022-11-06T22:03:12.018Z,8.43
2022-11-06T22:05:44.103Z,7.73
2022-11-06T22:08:16.163Z,8.83
2022-11-06T22:10:48.275Z,9.60
2022-11-06T22:13:19.990Z,7.93
2022-11-06T22:15:51.727Z,9.00
2022-11-06T22:18:23.427Z,8.70
2022-11-06T22:21:09.070Z,9.30
2022-11-06T22:23:40.990Z,8.60
2022-11-06T22:26:18.626Z,9.30
2022-11-06T22:28:57.469Z,8.87
2022-11-06T22:31:30.197Z,7.63
2022-11-06T22:34:02.582Z,8.87
2022-11-06T22:36:36.336Z,9.50
2022-11-06T22:39:09.043Z,9.17
2022-11-06T22:41:41.340Z,8.87
2022-11-06T22:44:13.389Z,9.17
2022-11-06T22:46:45.224Z,9.93
2022-11-06T22:49:17.022Z,10.23
2022-11-06T22:51:48.737Z,9.43
2022-11-06T22:54:20.522Z,9.53
2022-11-06T22:56:52.260Z,9.30
2022-11-06T22:59:24.104Z,8.53
2022-11-06T23:01:55.881Z,9.00
2022-11-06T23:04:27.643Z,9.47
2022-11-06T23:06:59.362Z,9.53
2022-11-06T23:09:31.062Z,9.37
2022-11-06T23:12:02.812Z,9.77
2022-11-06T23:14:34.965Z,10.30
2022-11-06T23:17:06.736Z,9.50
2022-11-06T23:19:38.621Z,8.77
2022-11-06T23:22:29.171Z,9.53
2022-11-06T23:25:00.997Z,8.07
2022-11-06T23:27:33.212Z,8.97
2022-11-06T23:30:06.545Z,8.53
2022-11-06T23:32:39.225Z,9.27
2022-11-06T23:35:14.201Z,9.83
2022-11-06T23:37:47.190Z,9.23
2022-11-06T23:40:19.057Z,8.57
2022-11-06T23:42:51.418Z,10.27
2022-11-06T23:45:42.210Z,8.93
2022-11-06T23:48:15.029Z,8.97
2022-11-06T23:50:47.017Z,8.93
2022-11-06T23:53:18.969Z,8.90
2022-11-06T23:55:50.712Z,8.73
2022-11-06T23:58:22.409Z,10.00
